Premont, Texas
Current Conditions -  °F | °C
As of 10:35 AM on Thursday 23 Oct 2014 (Local Time) from KBKS Reporting Station
Clear Clear  
Wind Chill: 73°   Ceiling: Unl
Heat Index: 73°   Visibility: 10mi
Dew Point: 65°   Wind: 6mph
Humidity: 76%   Direction: 20°NNE
Pressure: 30.11"   Gusts: NA
Location:  27.36°N, 98.12°W
Report Text: KBKS 231535Z AUTO 02005KT 10SM CLR 23/18 A3011 RMK AO1 T02250181
Loading
Personal Weather Stations






























Interactive Weather Map
Tropical Storm Tracking
New forecast layout! Learn more

10-Day Weather Forecast

Advertisements
Track Severe Weather on mobile